Date,TemperatureHighF,TemperatureAvgF,TemperatureLowF,DewpointHighF,DewpointAvgF,DewpointLowF,HumidityHigh,HumidityAvg,HumidityLow,PressureMaxIn,PressureMinIn,WindSpeedMaxMPH,WindSpeedAvgMPH,GustSpeedMaxMPH,PrecipitationSumIn
2014-1-1,13,8,-10,-6,-10,-20,60,43,39,0.00,40.00,5,4,11,0.00
2014-1-2,17,12,3,-5,-8,-11,50,41,36,0.00,40.00,8,7,16,0.00
2014-1-3,16,8,-8,7,-3,-16,70,60,47,0.00,40.00,13,10,27,0.00
2014-1-4,26,20,16,19,11,-100,86,72,48,0.00,40.00,12,7,23,0.00
2014-1-5,13,7,-3,0,-10,-16,65,46,37,0.00,40.00,8,6,18,0.00
2014-1-6,-2,-8,-17,-16,-24,-31,52,44,34,0.00,40.00,10,8,22,0.00
2014-1-7,3,-10,-19,-16,-24,-31,61,50,38,0.00,40.00,10,7,19,0.00
2014-1-8,17,0,-13,-4,-15,-26,66,52,33,0.00,40.00,7,4,13,0.00
2014-1-9,13,10,-8,3,-3,-26,63,56,33,0.00,40.00,9,4,15,0.00
2014-1-10,31,24,13,30,20,3,96,85,63,0.00,40.00,6,4,12,0.00
2014-1-11,36,32,30,32,24,-100,96,77,65,0.00,40.00,7,5,15,0.00
2014-1-12,32,29,25,28,25,22,89,85,66,0.00,40.00,8,5,14,0.00
2014-1-13,40,35,30,29,27,23,89,74,57,0.00,40.00,8,5,17,0.06
2014-1-14,31,22,17,20,16,9,82,75,59,0.00,40.00,11,7,31,0.01
2014-1-15,22,15,10,9,5,1,76,64,49,0.00,40.00,10,7,30,0.00
2014-1-16,30,18,10,25,14,4,86,83,76,0.00,40.00,9,4,19,0.00
2014-1-17,30,24,19,21,14,7,78,65,57,0.00,40.00,10,8,23,0.00
2014-1-18,24,15,9,10,3,-100,78,64,54,0.00,40.00,4,4,7,0.26
2014-1-19,28,20,10,22,13,2,83,74,56,0.00,40.00,9,6,18,0.02
2014-1-20,17,9,0,1,-8,-14,53,45,36,0.00,40.00,9,7,20,0.02
2014-1-21,13,4,-3,-8,-11,-15,64,49,37,0.00,40.00,8,4,16,0.02
2014-1-22,13,3,-3,-3,-7,-12,74,64,48,0.00,40.00,7,4,17,0.00
2014-1-23,15,5,-7,-1,-10,-19,63,51,36,0.00,40.00,9,5,20,0.01
2014-1-24,17,5,-8,14,-2,-18,86,70,61,0.00,40.00,11,8,23,0.01
2014-1-25,21,6,-6,15,-10,-100,86,49,30,0.00,40.00,13,8,26,0.00
2014-1-26,10,3,-4,-2,-8,-15,65,59,50,0.00,40.00,12,5,28,0.00
2014-1-27,1,-4,-11,-13,-21,-24,57,44,32,0.00,40.00,12,8,24,0.01
2014-1-28,5,-6,-18,-16,-21,-27,61,47,32,0.00,40.00,11,8,24,0.01
2014-1-29,21,8,-4,2,-9,-16,58,46,25,0.00,40.00,11,7,20,0.00
2014-1-30,27,19,12,22,11,1,88,71,57,0.00,40.00,8,5,18,0.00
2014-1-31,14,8,0,3,-6,-11,71,54,43,0.00,40.00,7,4,13,0.00
2014-2-1,18,8,-10,6,-8,-100,60,52,46,0.00,40.00,4,2,7,0.00
2014-2-2,19,12,6,-2,-3,-4,64,51,38,0.00,40.00,4,3,8,0.04
2014-2-3,23,16,11,5,4,2,66,59,46,0.00,40.00,7,6,13,0.03
2014-2-4,25,20,17,5,4,4,59,52,40,0.00,40.00,6,4,11,0.26
2014-2-5,14,11,9,2,-2,-8,64,55,45,0.00,40.00,9,7,20,0.19
2014-2-6,16,5,-5,-8,-11,-14,72,50,30,0.00,40.00,9,6,20,0.00
2014-2-7,21,5,-10,-7,-11,-17,70,49,27,0.00,40.00,12,6,25,0.00
2014-2-8,18,9,-1,-3,-8,-17,52,44,32,0.00,40.00,5,3,10,0.00
2014-2-9,23,18,10,4,0,-7,53,44,37,0.00,40.00,6,5,14,0.00
2014-2-10,13,7,2,-11,-11,-12,53,44,31,0.00,40.00,4,3,9,0.00
2014-2-11,17,10,4,-7,-8,-9,56,45,32,0.00,40.00,7,6,15,0.00
2014-2-12,22,11,4,8,1,-9,77,63,51,0.00,40.00,10,6,17,0.02
2014-2-13,25,14,-1,20,9,-8,90,82,70,0.00,40.00,8,4,17,0.01
2014-2-14,24,16,6,14,4,-9,75,58,44,0.00,40.00,11,8,28,0.14
2014-2-15,20,11,4,6,-4,-100,81,55,40,0.00,40.00,5,4,11,0.01
2014-2-16,24,11,-1,6,0,-7,78,62,39,0.00,40.00,7,4,19,0.18
2014-2-17,21,13,-1,16,8,-7,87,80,69,0.00,40.00,9,5,23,0.01
2014-2-18,31,22,5,25,15,-4,86,76,63,0.00,40.00,8,4,17,0.13
2014-2-19,48,43,34,19,15,13,46,33,27,0.00,40.00,9,7,20,0.01
2014-2-20,38,32,23,31,26,19,95,78,60,0.00,40.00,15,8,30,0.01
2014-2-21,34,24,13,33,20,5,96,85,71,0.00,40.00,14,9,30,0.05
2014-2-22,26,15,8,8,3,-100,71,60,45,0.00,40.00,12,9,25,0.01
2014-2-23,25,13,3,3,-2,-5,67,53,32,0.00,40.00,10,7,21,0.01
2014-2-24,21,15,7,0,-3,-9,58,45,37,0.00,40.00,9,6,20,0.00
2014-2-25,14,8,0,-5,-11,-16,67,43,29,0.00,40.00,11,7,24,0.00
2014-2-26,11,3,-12,1,-13,-21,73,48,22,0.00,40.00,14,8,28,0.00
2014-2-27,10,1,-14,-6,-20,-31,59,39,20,0.00,40.00,13,8,30,0.00
2014-2-28,15,9,-13,6,-4,-33,79,58,28,0.00,40.00,9,6,20,0.00
2014-3-1,17,10,4,3,-8,-100,67,50,30,0.00,40.00,8,6,21,0.00
2014-3-2,18,6,-5,-14,-18,-23,41,31,21,0.00,40.00,7,6,18,0.00
2014-3-3,21,15,10,7,-6,-13,79,40,24,0.00,40.00,8,6,14,0.01
2014-3-4,26,15,10,10,6,-2,79,65,43,0.00,40.00,5,4,9,0.08
2014-3-5,23,15,1,-5,-7,-10,63,38,23,0.00,40.00,6,4,12,0.07
2014-3-6,28,18,-3,10,6,-12,81,59,38,0.00,40.00,12,8,25,0.01
2014-3-7,31,22,15,20,14,10,84,71,57,0.00,40.00,10,6,25,0.00
2014-3-8,27,18,8,15,5,-100,74,61,38,0.00,40.00,9,6,27,0.11
2014-3-9,37,30,12,19,13,4,68,51,44,0.00,40.00,11,7,21,0.01
2014-3-10,62,52,33,33,25,20,61,37,22,0.00,40.00,14,8,30,0.00
2014-3-11,47,39,27,25,22,16,62,52,41,0.00,40.00,10,6,19,0.00
2014-3-12,27,16,6,16,-2,-10,70,46,27,0.00,40.00,12,9,27,0.00
2014-3-13,33,20,-4,21,6,-16,77,55,44,0.00,40.00,10,6,19,0.00
2014-3-14,46,35,27,37,29,19,89,78,54,0.00,40.00,11,6,21,0.10
2014-3-15,29,21,11,19,5,-100,69,53,31,0.00,40.00,11,8,22,0.09
2014-3-16,23,15,8,-2,-6,-8,53,40,28,0.00,40.00,7,4,18,0.00
2014-3-17,24,16,4,17,6,-6,87,67,51,0.00,40.00,10,5,19,0.00
2014-3-18,32,27,19,25,20,16,89,76,62,0.00,40.00,7,5,15,0.07
2014-3-19,39,33,28,30,27,25,90,78,69,0.00,40.00,8,6,17,0.32
2014-3-20,41,32,26,25,18,-100,74,61,38,0.00,40.00,8,5,17,0.02
2014-3-21,39,28,13,30,18,-100,92,69,53,0.00,40.00,9,4,17,0.01
2014-3-22,35,26,20,28,8,-100,78,49,32,0.00,40.00,12,8,24,0.03
2014-3-23,27,18,13,0,-1,-2,51,42,30,0.00,40.00,7,4,14,0.00
2014-3-24,31,28,17,1,-2,-5,49,28,22,0.00,40.00,11,8,23,0.00
2014-3-25,22,19,9,3,-4,-10,56,37,30,0.00,40.00,10,7,27,0.00
2014-3-26,30,26,17,17,6,-3,71,43,30,0.00,40.00,9,8,19,0.00
2014-3-27,38,31,25,35,29,17,96,92,71,0.00,40.00,7,4,14,0.49
2014-3-28,38,31,27,30,24,19,85,74,48,0.00,40.00,10,6,21,0.23
2014-3-29,44,30,26,22,16,-100,77,60,33,0.00,40.00,4,1,10,0.14
2014-3-30,49,36,20,26,20,10,73,53,35,0.00,40.00,12,5,25,0.00
2014-3-31,48,39,29,33,28,25,87,66,48,0.00,40.00,11,6,22,0.00
2014-4-1,45,35,27,36,25,11,81,66,51,0.00,40.00,10,8,23,0.00
2014-4-2,39,28,24,18,14,10,62,55,36,0.00,40.00,11,6,21,0.00
2014-4-3,38,31,23,20,18,14,74,59,45,0.00,40.00,11,7,25,0.00
2014-4-4,37,32,27,31,25,20,93,76,58,0.00,40.00,11,8,25,0.39
2014-4-5,48,36,27,26,19,-100,75,55,35,0.00,40.00,9,5,25,0.29
2014-4-6,55,45,31,32,28,23,72,52,34,0.00,40.00,11,6,22,0.07
2014-4-7,60,47,33,41,34,27,80,62,41,0.00,40.00,6,4,11,0.14
2014-4-8,57,47,40,32,26,17,66,46,25,0.00,40.00,11,5,22,0.01
2014-4-9,54,49,42,30,24,18,57,38,26,0.00,40.00,11,8,21,0.00
2014-4-10,61,53,38,33,23,15,57,34,18,0.00,40.00,14,9,29,0.00
2014-4-11,53,47,36,38,30,17,83,55,30,0.00,40.00,9,5,18,0.02
2014-4-12,41,38,37,36,32,-100,94,86,67,0.00,40.00,9,6,18,0.18
2014-4-13,55,42,37,38,35,32,96,80,52,0.00,40.00,7,6,19,0.01
2014-4-14,41,31,27,34,24,16,92,79,58,0.00,40.00,14,11,31,0.28
2014-4-15,34,26,19,20,12,6,71,55,38,0.00,40.00,9,4,19,0.11
2014-4-16,34,29,16,27,22,6,93,78,46,0.00,40.00,9,5,17,0.02
2014-4-17,47,33,29,33,29,27,94,85,57,0.00,40.00,6,2,12,0.25
2014-4-18,49,38,31,31,25,22,74,60,37,0.00,40.00,7,5,18,0.25
2014-4-19,49,40,28,34,26,-100,92,61,40,0.00,40.00,11,7,24,0.06
2014-4-20,56,46,36,48,42,34,93,85,74,0.00,40.00,6,4,12,0.23
2014-4-21,68,50,42,52,40,29,91,72,44,0.00,40.00,12,4,29,0.03
2014-4-22,48,43,36,29,26,24,62,52,42,0.00,40.00,12,8,27,0.02
2014-4-23,56,44,30,24,20,15,74,43,21,0.00,40.00,6,4,12,0.00
2014-4-24,44,37,33,35,26,19,95,68,36,0.00,40.00,8,4,20,0.27
2014-4-25,51,38,32,41,33,29,96,84,59,0.00,40.00,9,3,18,0.21
2014-4-26,51,42,38,32,29,22,71,61,36,0.00,40.00,9,3,19,0.08
2014-4-28,48,47,46,22,20,18,38,34,31,0.00,40.00,13,3,31,0.00
2014-4-29,46,40,34,41,35,22,96,84,38,0.00,40.00,12,4,27,0.69
2014-4-30,52,45,41,47,43,39,98,94,83,0.00,40.00,4,2,9,0.06
2014-5-1,49,44,41,44,41,38,98,90,72,0.00,40.00,6,4,11,0.40
2014-5-2,50,46,41,41,39,38,88,75,65,0.00,40.00,6,2,12,0.16
2014-5-3,56,47,37,41,32,-100,92,63,31,0.00,40.00,12,6,27,0.08
2014-5-4,56,47,37,33,31,28,73,55,37,0.00,40.00,11,8,23,0.12
2014-5-5,58,45,34,34,30,26,84,57,37,0.00,40.00,6,4,12,0.02
2014-5-6,55,44,30,30,27,24,84,53,33,0.00,40.00,7,4,16,0.00
2014-5-7,42,42,42,25,25,25,51,51,51,0.00,40.00,5,5,10,0.00
2014-5-13,67,59,54,41,40,38,56,48,39,0.00,40.00,7,4,16,0.00
2014-5-14,62,50,41,43,33,27,89,56,31,0.00,40.00,10,5,23,0.00
2014-5-15,48,44,41,34,30,27,77,57,47,0.00,40.00,11,7,26,0.05
2014-5-16,49,41,34,33,31,28,82,70,44,0.00,40.00,5,3,9,0.06
2014-5-17,60,44,30,33,27,-100,87,59,28,0.00,40.00,7,2,19,0.00
2014-5-18,73,54,36,47,37,30,79,56,25,0.00,40.00,7,3,16,0.00
2014-5-19,71,56,45,46,34,-100,93,53,28,0.00,40.00,13,6,27,0.10
2014-5-20,69,54,47,55,48,-100,98,84,58,0.00,40.00,8,4,21,0.79
2014-5-21,78,64,44,56,48,43,99,60,35,0.00,40.00,10,4,21,0.07
2014-5-22,72,61,53,48,42,-100,70,54,33,0.00,40.00,8,4,20,0.00
2014-5-23,77,63,48,44,41,36,81,49,23,0.00,40.00,8,3,20,0.00
2014-5-24,85,68,45,49,44,-100,85,47,25,0.00,40.00,8,3,15,0.00
2014-5-25,84,72,55,50,46,36,73,44,18,0.00,40.00,9,4,21,0.00
2014-5-26,87,74,57,67,58,50,81,60,40,0.00,40.00,9,3,20,0.00
2014-5-27,78,67,56,64,46,29,87,50,24,0.00,40.00,8,5,18,0.00
2014-5-28,79,62,45,49,44,39,82,56,32,0.00,40.00,7,4,18,0.00
2014-5-29,79,63,44,54,48,40,88,62,33,0.00,40.00,6,2,13,0.00
2014-5-30,87,69,50,56,50,45,89,56,26,0.00,40.00,7,2,14,0.00
2014-5-31,83,69,52,57,52,-100,94,60,36,0.00,40.00,8,4,21,0.00
2014-6-1,81,65,54,66,58,51,90,77,60,0.00,40.00,9,4,20,0.07
2014-6-2,80,71,64,70,65,60,93,79,63,0.00,40.00,8,5,20,0.25
2014-6-3,76,65,55,60,50,46,92,61,39,0.00,40.00,12,7,28,0.01
2014-6-4,80,65,48,51,43,30,84,50,19,0.00,40.00,8,3,18,0.00
2014-6-5,82,65,39,48,42,36,89,47,23,0.00,40.00,7,3,14,0.00
2014-6-6,81,68,54,62,54,43,82,63,37,0.00,40.00,7,3,19,0.06
2014-6-7,81,63,54,63,53,-100,92,74,44,0.00,40.00,11,4,32,0.69
2014-6-8,75,64,51,52,46,39,88,57,35,0.00,40.00,8,5,20,0.55
2014-6-9,81,61,39,44,38,30,88,50,18,0.00,40.00,5,2,12,0.00
2014-6-10,76,63,45,51,45,40,82,55,35,0.00,40.00,6,3,13,0.00
2014-6-11,78,66,52,53,49,44,83,58,33,0.00,40.00,8,4,17,0.00
2014-6-12,73,61,52,60,51,43,91,71,44,0.00,40.00,11,5,24,0.00
2014-6-13,75,59,50,45,42,37,76,57,28,0.00,40.00,10,7,23,0.00
2014-6-14,69,55,41,47,41,-100,85,64,42,0.00,40.00,7,3,13,0.00
2014-6-15,72,61,53,61,52,44,99,74,43,0.00,40.00,12,6,27,0.20
2014-6-16,87,72,55,60,54,48,99,59,27,0.00,40.00,10,5,21,0.01
2014-6-17,93,74,62,67,62,57,95,69,34,0.00,40.00,9,5,20,0.54
2014-6-18,78,66,59,62,57,52,90,72,56,0.00,40.00,6,4,16,0.10
2014-6-19,72,63,51,58,51,43,95,67,45,0.00,40.00,9,4,19,0.04
2014-6-20,59,54,49,54,49,41,98,85,53,0.00,40.00,6,2,13,0.20
2014-6-21,67,58,53,60,55,-100,100,93,73,0.00,40.00,5,2,11,0.04
2014-6-22,79,70,61,63,60,56,91,72,54,0.00,40.00,5,3,12,0.02
2014-6-23,80,69,59,65,61,56,93,75,56,0.00,40.00,4,2,9,0.00
2014-6-24,72,66,54,66,61,50,95,84,70,0.00,40.00,5,3,15,0.51
2014-6-25,74,61,53,54,50,43,85,68,48,0.00,40.00,6,4,12,0.02
2014-6-26,77,65,49,57,50,41,86,60,41,0.00,40.00,5,2,11,0.00
2014-6-27,76,64,50,64,57,47,95,77,63,0.00,40.00,7,3,16,0.00
2014-6-28,85,73,62,67,62,-100,92,71,54,0.00,40.00,10,6,21,0.00
2014-6-29,83,74,66,67,64,60,98,74,47,0.00,40.00,10,5,29,0.50
2014-6-30,87,75,67,66,63,60,94,68,41,0.00,40.00,13,7,27,0.02
2014-7-1,79,71,62,65,61,59,92,72,51,0.00,40.00,11,6,24,0.23
2014-7-2,80,66,54,62,49,42,90,59,26,0.00,40.00,8,4,18,0.23
2014-7-3,80,65,51,50,43,38,75,49,26,0.00,40.00,8,3,17,0.00
2014-7-4,86,70,49,49,44,42,77,44,25,0.00,40.00,6,3,15,0.00
2014-7-5,83,70,59,59,51,-100,70,54,41,0.00,40.00,12,6,24,0.00
2014-7-6,74,69,66,70,65,60,96,86,72,0.00,40.00,9,4,17,0.92
2014-7-7,86,74,64,64,58,51,84,61,31,0.00,40.00,11,4,27,0.06
2014-7-8,68,62,51,56,52,47,94,72,57,0.00,40.00,6,4,15,0.50
2014-7-9,76,62,49,55,50,46,90,68,41,0.00,40.00,7,2,14,0.08
2014-7-10,76,64,45,55,49,43,92,64,36,0.00,40.00,8,4,15,0.07
2014-7-11,78,69,56,63,56,51,87,66,51,0.00,40.00,9,4,22,0.00
2014-7-12,84,72,62,68,61,56,91,68,55,0.00,40.00,6,3,30,0.98
2014-7-13,79,70,59,61,54,45,85,61,32,0.00,40.00,10,4,21,0.96
2014-7-14,72,63,55,58,53,49,87,72,52,0.00,40.00,9,3,22,0.33
2014-7-15,65,60,52,54,50,47,88,69,56,0.00,40.00,11,6,24,0.02
2014-7-16,81,65,51,52,48,44,86,59,31,0.00,40.00,7,4,17,0.00
2014-7-17,85,68,46,57,49,42,90,55,31,0.00,40.00,5,3,13,0.00
2014-7-18,79,68,51,57,53,49,92,61,39,0.00,40.00,8,4,19,0.00
2014-7-19,78,70,58,61,57,55,92,65,48,0.00,40.00,9,4,17,0.00
2014-7-20,81,70,63,62,59,56,79,67,50,0.00,40.00,8,4,18,0.00
2014-7-21,85,75,65,70,65,59,93,72,60,0.00,40.00,8,5,16,0.00
2014-7-22,91,76,67,72,64,55,89,69,45,0.00,40.00,12,6,26,0.00
2014-7-23,78,67,53,55,50,45,92,57,33,0.00,40.00,8,4,23,0.00
2014-7-24,85,66,47,54,49,42,83,57,29,0.00,40.00,5,3,11,0.00
2014-7-25,76,69,57,61,57,50,80,65,51,0.00,40.00,9,4,18,0.00
2014-7-26,91,74,63,67,60,53,92,65,29,0.00,40.00,9,4,19,0.00
2014-7-27,72,66,59,63,57,46,96,75,52,0.00,40.00,11,5,23,0.06
2014-7-28,80,64,47,55,48,43,85,58,34,0.00,40.00,7,4,18,0.06
2014-7-29,77,65,57,60,55,52,90,71,48,0.00,40.00,8,3,15,0.01
2014-7-30,82,64,50,54,50,46,92,65,30,0.00,40.00,6,3,12,0.02
2014-7-31,85,66,53,58,49,47,92,59,28,0.00,40.00,8,3,18,0.01
2014-8-1,80,66,49,56,52,47,94,63,41,0.00,40.00,6,2,11,0.01
2014-8-2,85,69,53,56,53,48,88,60,34,0.00,40.00,5,2,11,0.00
2014-8-3,87,70,58,65,61,56,95,74,44,0.00,40.00,7,2,20,0.88
2014-8-4,81,66,51,60,56,49,93,71,45,0.00,40.00,6,2,14,0.10
2014-8-5,84,69,55,58,53,48,91,61,31,0.00,40.00,4,2,9,0.00
2014-8-6,87,70,54,57,53,50,94,61,30,0.00,40.00,4,2,10,0.00
2014-8-7,81,75,58,58,56,54,88,53,42,0.00,40.00,6,3,11,0.00
2014-8-8,88,71,52,60,53,48,92,59,26,0.00,40.00,5,2,13,0.00
2014-8-9,90,72,53,61,55,50,96,61,29,0.00,40.00,6,2,15,0.00
2014-8-10,87,70,55,61,57,53,93,68,41,0.00,40.00,6,2,13,0.00
2014-8-11,78,66,55,62,57,52,93,75,51,0.00,40.00,11,3,27,0.02
2014-8-12,74,59,52,54,51,46,93,76,42,0.00,40.00,10,6,25,0.15
2014-8-13,75,58,50,54,49,46,94,76,43,0.00,40.00,8,4,21,0.01
2014-8-14,69,52,43,47,44,41,93,78,40,0.00,40.00,8,2,20,0.00
2014-8-15,82,64,42,57,48,39,89,62,32,0.00,40.00,6,3,14,0.00
2014-8-16,76,67,57,66,58,52,83,72,57,0.00,40.00,9,5,18,0.00
2014-8-17,70,59,49,56,53,48,97,80,60,0.00,40.00,6,3,15,0.00
2014-8-18,64,56,46,62,55,45,99,96,92,0.00,40.00,4,2,10,0.14
2014-8-19,79,66,62,66,64,62,100,91,62,0.00,40.00,4,2,12,1.10
2014-8-20,72,66,60,63,61,58,96,84,69,0.00,40.00,4,2,8,0.19
2014-8-21,72,66,60,64,62,59,98,87,74,0.00,40.00,5,2,9,0.00
2014-8-22,79,70,63,69,65,61,94,86,72,0.00,40.00,4,3,10,0.00
2014-8-23,70,66,66,67,65,64,99,92,84,0.00,40.00,5,4,13,0.10
2014-8-24,78,69,64,67,65,63,97,87,66,0.00,40.00,7,4,15,0.01
2014-8-25,84,74,67,71,67,63,98,80,57,0.00,40.00,9,4,17,0.07
2014-8-26,78,65,54,70,56,50,96,75,42,0.00,40.00,7,3,14,0.01
2014-8-27,75,57,49,55,49,45,93,77,37,0.00,40.00,6,2,11,0.02
2014-8-28,70,60,49,58,52,46,94,76,55,0.00,40.00,6,2,13,0.02
2014-8-29,73,64,56,68,62,55,98,94,82,0.00,40.00,5,2,24,0.61
2014-8-30,70,64,62,67,62,58,99,90,81,0.00,40.00,5,3,15,2.62
2014-8-31,69,63,59,62,59,58,98,89,70,0.00,40.00,5,3,11,0.06
2014-9-1,76,68,58,68,64,57,98,88,65,0.00,40.00,7,4,18,0.14
2014-9-2,81,64,54,59,54,51,97,73,36,0.00,40.00,8,3,16,0.03
2014-9-3,78,65,51,63,56,48,93,74,50,0.00,40.00,9,4,21,0.00
2014-9-4,72,67,62,67,64,61,99,91,80,0.00,40.00,12,5,23,2.56
2014-9-5,73,68,58,68,59,52,97,74,52,0.00,40.00,12,6,20,0.67
2014-9-6,75,60,50,53,46,39,91,65,27,0.00,40.00,9,3,23,0.01
2014-9-7,82,64,48,55,49,43,92,63,31,0.00,40.00,8,3,18,0.00
2014-9-8,77,63,49,58,54,48,97,75,44,0.00,40.00,9,4,18,0.00
2014-9-9,79,66,53,64,59,52,98,80,55,0.00,40.00,6,2,14,0.00
2014-9-10,63,56,45,62,53,38,98,91,77,0.00,40.00,14,8,33,2.02
2014-9-11,51,46,38,41,38,36,93,75,59,0.00,40.00,14,6,31,0.01
2014-9-12,53,44,36,43,38,34,96,81,52,0.00,40.00,5,2,10,0.00
2014-9-13,59,46,38,43,39,36,95,79,44,0.00,40.00,4,2,11,0.00
2014-9-14,65,54,44,50,44,41,88,70,51,0.00,40.00,12,5,24,0.00
2014-9-15,64,49,40,48,43,37,96,80,44,0.00,40.00,6,2,11,0.00
2014-9-16,71,55,39,47,40,35,92,61,35,0.00,40.00,8,4,19,0.00
2014-9-17,61,49,42,49,43,35,93,80,64,0.00,40.00,8,4,19,0.00
2014-9-18,60,47,39,43,38,35,96,71,46,0.00,40.00,6,3,14,0.00
2014-9-19,71,54,40,56,49,39,98,83,51,0.00,40.00,14,5,38,0.00